Paulding, Ohio
Current Conditions -  °F | °C
As of 3:53 AM on Friday 28 Nov 2014 (Local Time) from KDFI Reporting Station
Overcast Overcast  
Wind Chill: 24°   Ceiling: 2400
Heat Index: 24°   Visibility: 10mi
Dew Point: 18°   Wind: 3mph
Humidity: 77%   Direction: NA
Pressure: 30.37"   Gusts: NA
Location:  41.14°N, 84.58°W
Report Text: KDFI 280853Z AUTO VRB03KT 10SM BKN024 OVC042 M04/M08 A3037 RMK AO2 SNE04 SLP292 P0000 60000 T10441078 53007
Loading
Personal Weather Stations






























Interactive Weather Map New forecast layout! Learn more

10-Day Weather Forecast

Advertisements
Track Severe Weather on mobile